Time;durP1;ratioP1;P1;durP2;ratioP2;P2;SDS_P1;SDS_P2;PMS_P1;PMS_P2;Temp;Humidity;BMP_temperature;BMP_pressure;BME280_temperature;BME280_humidity;BME280_pressure;Samples;Min_cycle;Max_cycle;Signal;HPM_P1;HPM_P2
2022/10/10 00:00:30;;;;;;;3.28;2.42;;;17.90;99.90;;;;;;4197189;28;20626;-80
2022/10/10 00:02:32;;;;;;;2.92;2.28;;;17.90;99.90;;;;;;4188233;28;20215;-79
2022/10/10 00:04:36;;;;;;;3.03;2.42;;;17.90;99.90;;;;;;4196776;28;20208;-79
2022/10/10 00:06:38;;;;;;;3.63;2.47;;;17.90;99.90;;;;;;4196256;28;20278;-80
2022/10/10 00:08:41;;;;;;;3.10;2.38;;;17.90;99.90;;;;;;4196915;28;20304;-79
2022/10/10 00:10:43;;;;;;;3.78;2.60;;;17.90;99.90;;;;;;4196515;28;20235;-81
2022/10/10 00:12:46;;;;;;;3.35;2.42;;;17.90;99.90;;;;;;4196607;28;20215;-80
2022/10/10 00:14:49;;;;;;;2.70;2.20;;;17.90;99.90;;;;;;4196467;28;20242;-80
2022/10/10 00:16:51;;;;;;;3.33;2.50;;;17.90;99.90;;;;;;4196587;28;20630;-80
2022/10/10 00:18:54;;;;;;;3.67;2.42;;;17.90;99.90;;;;;;4192097;28;20726;-80
2022/10/10 00:20:57;;;;;;;3.67;2.40;;;17.90;99.90;;;;;;4196806;28;20614;-80
2022/10/10 00:22:59;;;;;;;3.03;2.35;;;17.90;99.90;;;;;;4190341;28;20211;-80
2022/10/10 00:25:02;;;;;;;3.70;2.55;;;17.90;99.90;;;;;;4193925;28;20261;-80
2022/10/10 00:27:04;;;;;;;3.53;2.40;;;17.90;99.90;;;;;;4193773;28;20211;-80
2022/10/10 00:29:06;;;;;;;3.95;2.72;;;17.90;99.90;;;;;;4196162;28;20215;-79
2022/10/10 00:31:09;;;;;;;3.95;2.72;;;17.90;99.90;;;;;;4196815;28;20693;-80
2022/10/10 00:33:12;;;;;;;4.95;2.67;;;17.90;99.90;;;;;;4196191;28;20207;-80
2022/10/10 00:35:14;;;;;;;3.75;2.53;;;17.90;99.90;;;;;;4196485;28;20568;-80
2022/10/10 00:37:18;;;;;;;3.65;2.53;;;17.90;99.90;;;;;;4202630;28;20293;-79
2022/10/10 00:39:20;;;;;;;3.53;2.58;;;17.90;99.90;;;;;;4203085;28;20272;-80
2022/10/10 00:41:22;;;;;;;3.55;2.17;;;17.90;99.90;;;;;;4203765;28;20260;-80
2022/10/10 00:43:26;;;;;;;3.15;2.53;;;17.90;99.90;;;;;;4205302;28;20226;-80
2022/10/10 00:45:33;;;;;;;3.40;2.50;;;17.90;99.90;;;;;;4203868;28;20276;-80
2022/10/10 00:47:35;;;;;;;4.65;2.83;;;17.90;99.90;;;;;;4201958;28;20332;-80
2022/10/10 00:49:41;;;;;;;3.45;2.67;;;17.90;99.90;;;;;;4202804;28;20720;-80
2022/10/10 00:51:46;;;;;;;3.80;2.75;;;17.90;99.90;;;;;;4203039;28;20271;-80
2022/10/10 00:53:53;;;;;;;3.90;2.63;;;17.90;99.90;;;;;;4196879;28;20211;-80
2022/10/10 00:55:56;;;;;;;3.80;2.65;;;17.90;99.90;;;;;;4199807;28;20285;-80
2022/10/10 00:57:58;;;;;;;4.93;3.13;;;17.90;99.90;;;;;;4204151;28;20219;-80
2022/10/10 01:00:02;;;;;;;3.72;2.78;;;17.90;99.90;;;;;;4198821;28;20218;-81
2022/10/10 01:02:04;;;;;;;4.03;2.75;;;17.80;99.90;;;;;;4199833;28;20210;-80
2022/10/10 01:04:27;;;;;;;3.92;3.10;;;17.90;99.90;;;;;;4199451;28;20212;-80
2022/10/10 01:06:30;;;;;;;4.85;3.13;;;17.90;99.90;;;;;;4201022;28;20315;-80
2022/10/10 01:08:33;;;;;;;5.95;2.63;;;17.90;99.90;;;;;;4200769;28;20612;-80
2022/10/10 01:10:59;;;;;;;4.43;3.10;;;17.90;99.90;;;;;;4202486;28;20281;-81
2022/10/10 01:13:14;;;;;;;5.32;3.03;;;17.80;99.90;;;;;;4205425;28;20215;-80
2022/10/10 01:15:25;;;;;;;3.78;3.00;;;17.90;99.90;;;;;;4198530;28;20318;-80
2022/10/10 01:17:33;;;;;;;3.90;2.67;;;17.80;99.90;;;;;;4198667;28;20225;-80
2022/10/10 01:20:16;;;;;;;3.65;2.53;;;17.90;99.90;;;;;;4204123;28;20214;-80
2022/10/10 01:22:29;;;;;;;4.30;2.92;;;17.90;99.90;;;;;;4199201;28;20238;-80
2022/10/10 01:24:51;;;;;;;4.45;2.67;;;17.80;99.90;;;;;;4200002;28;20251;-80
2022/10/10 01:27:33;;;;;;;4.10;2.70;;;17.80;99.90;;;;;;4199537;28;20218;-80
2022/10/10 01:29:42;;;;;;;3.22;2.72;;;17.80;99.90;;;;;;4199506;28;20214;-80
2022/10/10 01:31:48;;;;;;;5.60;3.40;;;17.80;99.90;;;;;;4201732;28;20288;-80
2022/10/10 01:34:00;;;;;;;4.63;2.88;;;17.80;99.90;;;;;;4197712;28;20238;-80
2022/10/10 01:36:07;;;;;;;3.92;2.75;;;17.80;99.90;;;;;;4200879;28;20703;-79
2022/10/10 01:38:28;;;;;;;4.47;3.13;;;17.80;99.90;;;;;;4200419;28;20215;-80
2022/10/10 01:40:38;;;;;;;4.35;2.90;;;17.80;99.90;;;;;;4195640;28;20215;-79
2022/10/10 01:42:47;;;;;;;4.35;3.00;;;17.80;99.90;;;;;;4195903;28;20214;-80
2022/10/10 01:44:52;;;;;;;3.53;2.55;;;17.80;99.90;;;;;;4195835;28;20275;-80
2022/10/10 01:46:55;;;;;;;3.88;2.83;;;17.80;99.90;;;;;;4192901;28;20265;-80
2022/10/10 01:48:59;;;;;;;3.20;2.90;;;17.80;99.90;;;;;;4191499;28;20276;-80
2022/10/10 01:51:15;;;;;;;3.30;2.65;;;17.80;99.90;;;;;;4197666;28;20718;-79
2022/10/10 01:53:26;;;;;;;4.45;2.92;;;17.80;99.90;;;;;;4205527;28;20298;-77
2022/10/10 01:55:42;;;;;;;4.28;3.22;;;17.80;99.90;;;;;;4207351;28;20218;-79
2022/10/10 01:57:55;;;;;;;3.83;2.75;;;17.80;99.90;;;;;;4205729;28;20284;-80
2022/10/10 02:00:07;;;;;;;3.25;2.40;;;17.80;99.90;;;;;;4198486;28;20272;-79
2022/10/10 02:02:20;;;;;;;4.78;3.30;;;17.80;99.90;;;;;;4207835;28;20670;-80
2022/10/10 02:04:30;;;;;;;3.80;2.55;;;17.80;99.90;;;;;;4205461;28;20279;-79
2022/10/10 02:06:41;;;;;;;3.53;2.70;;;17.80;99.90;;;;;;4204284;28;20343;-80
2022/10/10 02:08:47;;;;;;;4.38;2.45;;;17.80;99.90;;;;;;4202963;28;20213;-80
2022/10/10 02:10:55;;;;;;;4.00;2.78;;;17.80;99.90;;;;;;4205654;28;20238;-80
2022/10/10 02:13:00;;;;;;;3.05;2.60;;;17.80;99.90;;;;;;4205516;28;20665;-79
2022/10/10 02:15:10;;;;;;;3.63;2.42;;;17.80;99.90;;;;;;4204616;28;20738;-80
2022/10/10 02:17:14;;;;;;;4.60;2.80;;;17.80;99.90;;;;;;4204442;28;20291;-80
2022/10/10 02:19:19;;;;;;;3.45;2.35;;;17.80;99.90;;;;;;4205288;28;20218;-80
2022/10/10 02:21:23;;;;;;;3.20;2.70;;;17.80;99.90;;;;;;4204726;28;20283;-79
2022/10/10 02:23:26;;;;;;;4.22;2.60;;;17.80;99.90;;;;;;4203514;28;20280;-79
2022/10/10 02:25:32;;;;;;;4.05;2.63;;;17.80;99.90;;;;;;4208110;28;20227;-80
2022/10/10 02:27:40;;;;;;;4.03;3.08;;;17.80;99.90;;;;;;4206038;28;20272;-80
2022/10/10 02:29:44;;;;;;;4.13;2.47;;;17.80;99.90;;;;;;4203590;28;21085;-79
2022/10/10 02:31:53;;;;;;;3.60;2.75;;;17.80;99.90;;;;;;4202080;28;20219;-80
2022/10/10 02:33:58;;;;;;;3.15;2.72;;;17.80;99.90;;;;;;4202996;28;20210;-80
2022/10/10 02:36:01;;;;;;;4.65;2.90;;;17.80;99.90;;;;;;4202600;28;20238;-80
2022/10/10 02:38:06;;;;;;;4.45;2.88;;;17.80;99.90;;;;;;4201685;28;20219;-80
2022/10/10 02:40:12;;;;;;;3.25;2.40;;;17.80;99.90;;;;;;4207261;28;20267;-79
2022/10/10 02:42:17;;;;;;;3.75;2.65;;;17.80;99.90;;;;;;4204127;28;20219;-80
2022/10/10 02:44:20;;;;;;;3.10;2.80;;;17.80;99.90;;;;;;4205505;28;20226;-80
2022/10/10 02:46:23;;;;;;;3.28;2.85;;;17.80;99.90;;;;;;4196749;28;20667;-80
2022/10/10 02:48:27;;;;;;;3.35;2.45;;;17.80;99.90;;;;;;4193397;28;20216;-79
2022/10/10 02:50:30;;;;;;;4.72;3.10;;;17.80;99.90;;;;;;4205115;28;20214;-80
2022/10/10 02:52:33;;;;;;;4.32;2.80;;;17.80;99.90;;;;;;4201835;28;20214;-80
2022/10/10 02:54:35;;;;;;;4.65;2.95;;;17.80;99.90;;;;;;4201718;28;20218;-80
2022/10/10 02:56:37;;;;;;;4.35;2.67;;;17.80;99.90;;;;;;4203162;28;20234;-80
2022/10/10 02:58:40;;;;;;;4.10;2.72;;;17.80;99.90;;;;;;4199329;28;20643;-80
2022/10/10 03:00:42;;;;;;;3.65;2.80;;;17.80;99.90;;;;;;4202867;28;20219;-81
2022/10/10 03:02:45;;;;;;;3.38;2.50;;;17.80;99.90;;;;;;4204050;28;20272;-80
2022/10/10 03:04:48;;;;;;;3.50;2.63;;;17.80;99.90;;;;;;4196232;28;20261;-81
2022/10/10 03:06:52;;;;;;;3.13;2.70;;;17.80;99.90;;;;;;4205535;28;20614;-80
2022/10/10 03:08:54;;;;;;;3.88;2.70;;;17.80;99.90;;;;;;4204742;28;20288;-80
2022/10/10 03:10:58;;;;;;;3.97;2.90;;;17.80;99.90;;;;;;4201172;28;20230;-80
2022/10/10 03:13:01;;;;;;;2.97;2.47;;;17.80;99.90;;;;;;4202922;28;21008;-80
2022/10/10 03:15:04;;;;;;;4.28;2.70;;;17.80;99.90;;;;;;4203164;28;20222;-80
2022/10/10 03:17:06;;;;;;;4.55;2.88;;;17.80;99.90;;;;;;4200987;28;20353;-81
2022/10/10 03:19:09;;;;;;;5.07;2.72;;;17.80;99.90;;;;;;4205177;28;20215;-81
2022/10/10 03:21:13;;;;;;;3.33;2.53;;;17.80;99.90;;;;;;4205725;28;20226;-80
2022/10/10 03:23:15;;;;;;;4.32;2.90;;;17.80;99.90;;;;;;4200173;28;20223;-80
2022/10/10 03:25:17;;;;;;;3.35;2.42;;;17.80;99.90;;;;;;4202797;28;20267;-80
2022/10/10 03:27:20;;;;;;;3.80;2.60;;;17.80;99.90;;;;;;4206678;28;20208;-80
2022/10/10 03:29:22;;;;;;;3.85;2.83;;;17.70;99.90;;;;;;4197856;28;20210;-81
2022/10/10 03:31:24;;;;;;;3.38;2.72;;;17.80;99.90;;;;;;4202183;28;20716;-81
2022/10/10 03:33:27;;;;;;;3.97;2.75;;;17.80;99.90;;;;;;4204383;28;20218;-81
2022/10/10 03:35:29;;;;;;;3.53;2.63;;;17.70;99.90;;;;;;4199709;28;20223;-80
2022/10/10 03:37:33;;;;;;;3.70;2.90;;;17.80;99.90;;;;;;4200958;28;20230;-80
2022/10/10 03:39:35;;;;;;;3.15;2.58;;;17.80;99.90;;;;;;4204198;28;20222;-81
2022/10/10 03:41:37;;;;;;;4.68;2.83;;;17.80;99.90;;;;;;4202517;28;20220;-80
2022/10/10 03:43:39;;;;;;;3.72;2.58;;;17.70;99.90;;;;;;4205225;28;20301;-80
2022/10/10 03:45:42;;;;;;;3.45;2.63;;;17.80;99.90;;;;;;4204215;28;20222;-80
2022/10/10 03:47:45;;;;;;;3.70;2.60;;;17.80;99.90;;;;;;4201765;28;20265;-80
2022/10/10 03:49:47;;;;;;;4.00;2.40;;;17.80;99.90;;;;;;4203878;28;20268;-80
2022/10/10 03:51:49;;;;;;;3.63;2.60;;;17.80;99.90;;;;;;4205458;28;20252;-80
2022/10/10 03:53:54;;;;;;;3.83;2.88;;;17.80;99.90;;;;;;4205701;28;20584;-80
2022/10/10 03:55:56;;;;;;;3.25;2.60;;;17.70;99.90;;;;;;4209140;28;20655;-80
2022/10/10 03:57:58;;;;;;;3.50;2.90;;;17.80;99.90;;;;;;4205194;28;20228;-81
2022/10/10 04:00:01;;;;;;;4.53;2.80;;;17.80;99.90;;;;;;4205289;28;20223;-80
2022/10/10 04:02:03;;;;;;;4.15;2.80;;;17.80;99.90;;;;;;4204582;28;20207;-80
2022/10/10 04:04:05;;;;;;;3.28;2.40;;;17.70;99.90;;;;;;4202269;28;20211;-81
2022/10/10 04:06:08;;;;;;;3.88;2.95;;;17.70;99.90;;;;;;4201564;28;20210;-80
2022/10/10 04:08:10;;;;;;;4.00;2.33;;;17.80;99.90;;;;;;4201502;28;20400;-80
2022/10/10 04:10:14;;;;;;;3.45;2.53;;;17.70;99.90;;;;;;4202913;28;20231;-80
2022/10/10 04:12:16;;;;;;;3.08;2.40;;;17.70;99.90;;;;;;4200836;28;20214;-80
2022/10/10 04:14:19;;;;;;;4.18;2.90;;;17.70;99.90;;;;;;4201360;28;20215;-80
2022/10/10 04:16:21;;;;;;;3.72;2.65;;;17.70;99.90;;;;;;4198443;28;20719;-81
2022/10/10 04:18:24;;;;;;;3.30;2.60;;;17.70;99.90;;;;;;4201628;28;20335;-80
2022/10/10 04:20:27;;;;;;;3.17;2.42;;;17.70;99.90;;;;;;4201315;28;20257;-80
2022/10/10 04:22:29;;;;;;;5.43;2.97;;;17.70;99.90;;;;;;4202150;28;20670;-80
2022/10/10 04:24:31;;;;;;;3.15;2.67;;;17.70;99.90;;;;;;4203577;28;20215;-80
2022/10/10 04:26:35;;;;;;;3.75;2.58;;;17.70;99.90;;;;;;4204217;28;20219;-81
2022/10/10 04:28:37;;;;;;;3.60;2.70;;;17.70;99.90;;;;;;4205827;28;20265;-80
2022/10/10 04:30:40;;;;;;;4.00;2.85;;;17.70;99.90;;;;;;4201777;28;20210;-80
2022/10/10 04:32:42;;;;;;;4.60;2.45;;;17.70;99.90;;;;;;4202477;28;20219;-80
2022/10/10 04:34:45;;;;;;;4.60;2.60;;;17.70;99.90;;;;;;4207968;28;20214;-80
2022/10/10 04:36:47;;;;;;;3.55;2.95;;;17.70;99.90;;;;;;4201778;28;20779;-81
2022/10/10 04:38:49;;;;;;;2.80;2.50;;;17.70;99.90;;;;;;4203178;28;20219;-80
2022/10/10 04:40:51;;;;;;;3.30;2.60;;;17.70;99.90;;;;;;4203023;28;20280;-80
2022/10/10 04:42:55;;;;;;;3.55;2.30;;;17.70;99.90;;;;;;4201533;28;20268;-80
2022/10/10 04:44:57;;;;;;;3.05;2.30;;;17.70;99.90;;;;;;4199468;28;20270;-79
2022/10/10 04:47:00;;;;;;;3.58;2.47;;;17.70;99.90;;;;;;4202526;28;20215;-80
2022/10/10 04:49:02;;;;;;;2.88;2.35;;;17.70;99.90;;;;;;4204118;28;20280;-80
2022/10/10 04:51:04;;;;;;;3.80;2.63;;;17.70;99.90;;;;;;4200662;28;20276;-80
2022/10/10 04:53:07;;;;;;;3.92;2.53;;;17.70;99.90;;;;;;4196403;28;20288;-80
2022/10/10 04:55:09;;;;;;;3.17;2.30;;;17.70;99.90;;;;;;4200446;28;20254;-80
2022/10/10 04:57:12;;;;;;;2.75;2.42;;;17.70;99.90;;;;;;4201050;28;20234;-81
2022/10/10 04:59:15;;;;;;;4.47;2.65;;;17.70;99.90;;;;;;4205690;28;20227;-81
2022/10/10 05:01:18;;;;;;;4.32;2.53;;;17.70;99.90;;;;;;4198824;28;20227;-81
2022/10/10 05:03:20;;;;;;;3.08;2.53;;;17.70;99.90;;;;;;4202061;28;20623;-81
2022/10/10 05:05:23;;;;;;;2.92;2.20;;;17.70;99.90;;;;;;4202406;28;20615;-80
2022/10/10 05:07:25;;;;;;;2.67;2.17;;;17.70;99.90;;;;;;4206930;28;20713;-80
2022/10/10 05:09:27;;;;;;;3.10;2.33;;;17.70;99.90;;;;;;4198924;28;20230;-80
2022/10/10 05:11:29;;;;;;;3.13;2.60;;;17.70;99.90;;;;;;4200204;28;20230;-80
2022/10/10 05:13:32;;;;;;;3.45;2.72;;;17.70;99.90;;;;;;4202149;28;20218;-81
2022/10/10 05:15:36;;;;;;;4.05;2.50;;;17.70;99.90;;;;;;4198564;28;20223;-81
2022/10/10 05:17:38;;;;;;;3.75;2.75;;;17.80;99.90;;;;;;4200696;28;20738;-79
2022/10/10 05:19:41;;;;;;;3.03;2.45;;;17.80;99.90;;;;;;4204965;28;20226;-80
2022/10/10 05:21:43;;;;;;;3.35;2.53;;;17.70;99.90;;;;;;4203457;28;20269;-79
2022/10/10 05:23:45;;;;;;;3.10;2.30;;;17.70;99.90;;;;;;4199388;28;20227;-81
2022/10/10 05:25:49;;;;;;;4.13;2.50;;;17.80;99.90;;;;;;4201490;28;20206;-80
2022/10/10 05:27:52;;;;;;;3.28;2.70;;;17.70;99.90;;;;;;4199419;28;20213;-80
2022/10/10 05:29:55;;;;;;;3.28;2.35;;;17.80;99.90;;;;;;4203291;28;20214;-79
2022/10/10 05:31:59;;;;;;;2.55;2.20;;;17.70;99.90;;;;;;4202937;28;20619;-77
2022/10/10 05:34:01;;;;;;;3.90;2.60;;;17.70;99.90;;;;;;4203513;28;20214;-79
2022/10/10 05:36:05;;;;;;;3.55;2.28;;;17.80;99.90;;;;;;4203084;28;20218;-79
2022/10/10 05:38:07;;;;;;;4.22;2.58;;;17.80;99.90;;;;;;4201860;28;20235;-80
2022/10/10 05:40:10;;;;;;;2.88;2.20;;;17.80;99.90;;;;;;4204745;28;20233;-80
2022/10/10 05:42:13;;;;;;;3.30;2.60;;;17.80;99.90;;;;;;4201403;28;20222;-80
2022/10/10 05:44:16;;;;;;;3.40;2.80;;;17.80;99.90;;;;;;4201022;28;20216;-80
2022/10/10 05:46:19;;;;;;;3.92;2.50;;;17.80;99.90;;;;;;4200403;28;20218;-81
2022/10/10 05:48:23;;;;;;;4.28;2.30;;;17.70;99.90;;;;;;4204087;28;20223;-80
2022/10/10 05:50:32;;;;;;;3.70;2.53;;;17.80;99.90;;;;;;4203527;28;20214;-80
2022/10/10 05:52:35;;;;;;;2.67;2.30;;;17.80;99.90;;;;;;4204174;28;20214;-79
2022/10/10 05:54:37;;;;;;;3.70;2.53;;;17.80;99.90;;;;;;4204347;28;20218;-80
2022/10/10 05:56:39;;;;;;;3.75;2.40;;;17.70;99.90;;;;;;4201796;28;20242;-80
2022/10/10 05:58:41;;;;;;;3.92;2.70;;;17.80;99.90;;;;;;4200442;28;20231;-80
2022/10/10 06:00:45;;;;;;;2.78;2.45;;;17.70;99.90;;;;;;4202941;28;20267;-80
2022/10/10 06:02:48;;;;;;;3.50;2.70;;;17.70;99.90;;;;;;4196291;28;20219;-80
2022/10/10 06:04:52;;;;;;;3.53;2.60;;;17.80;99.90;;;;;;4201328;28;20229;-80
2022/10/10 06:06:54;;;;;;;3.42;2.45;;;17.80;99.90;;;;;;4204643;28;20245;-80
2022/10/10 06:08:57;;;;;;;4.15;2.47;;;17.80;99.90;;;;;;4205781;28;20265;-80
2022/10/10 06:11:04;;;;;;;5.05;2.35;;;17.80;99.90;;;;;;4198318;28;20226;-80
2022/10/10 06:13:06;;;;;;;3.25;2.55;;;17.80;99.90;;;;;;4203698;28;20215;-80
2022/10/10 06:15:10;;;;;;;4.32;2.35;;;17.80;99.90;;;;;;4202647;28;20271;-80
2022/10/10 06:17:12;;;;;;;4.18;2.55;;;17.80;99.90;;;;;;4197824;28;20976;-80
2022/10/10 06:19:14;;;;;;;2.85;2.20;;;17.80;99.90;;;;;;4199306;28;20231;-80
2022/10/10 06:21:19;;;;;;;3.35;2.30;;;17.80;99.90;;;;;;4203919;28;20671;-80
2022/10/10 06:23:21;;;;;;;2.47;2.28;;;17.80;99.90;;;;;;4201837;28;20572;-81
2022/10/10 06:25:24;;;;;;;3.20;2.10;;;17.80;99.90;;;;;;4202282;28;20268;-80
2022/10/10 06:27:26;;;;;;;3.72;2.38;;;17.80;99.90;;;;;;4202383;28;20238;-80
2022/10/10 06:29:28;;;;;;;4.07;2.35;;;17.80;99.90;;;;;;4201453;28;20631;-80
2022/10/10 06:31:31;;;;;;;2.85;2.20;;;17.80;99.90;;;;;;4204997;28;20272;-80
2022/10/10 06:33:33;;;;;;;3.03;2.28;;;17.80;99.90;;;;;;4198828;28;20269;-79
2022/10/10 06:35:39;;;;;;;2.58;2.28;;;17.80;99.90;;;;;;4188110;28;20211;-80
2022/10/10 06:37:42;;;;;;;3.03;2.47;;;17.80;99.90;;;;;;4198234;28;20253;-79
2022/10/10 06:39:44;;;;;;;2.15;1.90;;;17.80;99.90;;;;;;4206402;28;21080;-80
2022/10/10 06:41:48;;;;;;;3.03;2.17;;;17.80;99.90;;;;;;4208426;28;20219;-78
2022/10/10 06:43:51;;;;;;;3.55;2.20;;;17.80;99.90;;;;;;4201670;28;20663;-80
2022/10/10 06:45:53;;;;;;;2.80;2.22;;;17.80;99.90;;;;;;4199098;28;20655;-79
2022/10/10 06:47:56;;;;;;;3.88;2.47;;;17.80;99.90;;;;;;4198287;28;20677;-79
2022/10/10 06:49:58;;;;;;;4.20;2.60;;;17.60;99.90;;;;;;4191897;28;20733;-81
2022/10/10 06:52:00;;;;;;;5.07;2.63;;;17.60;99.90;;;;;;4194985;28;20614;-86
2022/10/10 06:54:05;;;;;;;6.63;2.63;;;17.70;99.90;;;;;;4192792;28;20580;-81
2022/10/10 06:56:07;;;;;;;7.15;2.65;;;17.70;99.90;;;;;;4207742;28;20211;-83
2022/10/10 06:58:10;;;;;;;5.15;3.03;;;17.60;99.90;;;;;;4201549;28;20215;-83
2022/10/10 07:00:13;;;;;;;8.82;3.08;;;17.70;99.90;;;;;;4201061;28;20215;-80
2022/10/10 07:02:15;;;;;;;6.00;3.10;;;17.80;99.90;;;;;;4199632;28;20280;-81
2022/10/10 07:04:18;;;;;;;9.25;2.90;;;17.80;99.90;;;;;;4202706;28;20280;-79
2022/10/10 07:06:20;;;;;;;5.22;2.90;;;17.70;99.90;;;;;;4204266;28;20265;-79
2022/10/10 07:08:23;;;;;;;6.38;2.65;;;17.70;99.90;;;;;;4189719;28;20232;-72
2022/10/10 07:10:27;;;;;;;8.98;3.03;;;17.80;99.90;;;;;;4194201;28;20273;-77
2022/10/10 07:12:29;;;;;;;6.15;3.38;;;17.80;99.90;;;;;;4196400;28;20751;-77
2022/10/10 07:14:31;;;;;;;4.85;2.88;;;17.80;99.90;;;;;;4208200;28;20724;-77
2022/10/10 07:16:33;;;;;;;3.60;2.83;;;17.80;99.90;;;;;;4196393;28;20212;-76
2022/10/10 07:18:36;;;;;;;8.02;3.70;;;17.80;99.90;;;;;;4191579;28;20289;-74
2022/10/10 07:20:40;;;;;;;6.70;3.17;;;17.80;99.90;;;;;;4185124;28;20678;-77
2022/10/10 07:22:42;;;;;;;9.00;2.78;;;17.90;99.90;;;;;;4188918;28;20269;-75
2022/10/10 07:24:45;;;;;;;7.97;3.35;;;17.90;99.90;;;;;;4187518;28;20260;-77
2022/10/10 07:26:53;;;;;;;5.03;3.10;;;18.00;99.90;;;;;;4192941;28;20269;-77
2022/10/10 07:28:55;;;;;;;9.20;3.13;;;18.10;99.90;;;;;;4183756;28;20207;-77
2022/10/10 07:31:02;;;;;;;7.90;3.03;;;18.20;99.90;;;;;;4192914;28;20211;-78
2022/10/10 07:33:05;;;;;;;7.50;3.22;;;18.20;99.90;;;;;;4196489;28;20256;-77
2022/10/10 07:35:08;;;;;;;7.45;3.30;;;18.20;99.90;;;;;;4194828;28;20261;-82
2022/10/10 07:37:10;;;;;;;12.45;3.33;;;18.20;99.90;;;;;;4193217;28;20270;-81
2022/10/10 07:39:12;;;;;;;8.27;3.33;;;18.20;99.90;;;;;;4189972;28;20301;-79
2022/10/10 07:41:15;;;;;;;11.05;3.13;;;18.20;99.90;;;;;;4195226;28;20264;-78
2022/10/10 07:43:19;;;;;;;8.57;3.35;;;18.30;99.90;;;;;;4200602;28;20252;-76
2022/10/10 07:45:21;;;;;;;8.05;3.35;;;18.30;99.90;;;;;;4193893;28;20295;-79
2022/10/10 07:47:23;;;;;;;10.25;3.50;;;18.40;99.90;;;;;;4198729;28;20292;-74
2022/10/10 07:49:26;;;;;;;10.25;3.20;;;18.40;99.90;;;;;;4189256;28;20277;-74
2022/10/10 07:51:28;;;;;;;8.30;2.88;;;18.40;99.90;;;;;;4201727;28;20276;-77
2022/10/10 07:53:30;;;;;;;9.77;2.92;;;18.40;99.90;;;;;;4197250;28;20223;-78
2022/10/10 07:55:33;;;;;;;10.68;3.20;;;18.50;99.90;;;;;;4199343;28;20384;-73
2022/10/10 07:57:36;;;;;;;9.98;3.17;;;18.50;99.90;;;;;;4195532;28;20240;-74
2022/10/10 07:59:41;;;;;;;7.85;3.10;;;18.50;99.90;;;;;;4190721;28;20254;-74
2022/10/10 08:01:43;;;;;;;11.07;3.28;;;18.50;99.90;;;;;;4193495;28;20301;-73
2022/10/10 08:03:47;;;;;;;7.32;3.33;;;18.50;99.90;;;;;;4190474;28;20277;-74
2022/10/10 08:05:49;;;;;;;10.82;3.05;;;18.50;99.90;;;;;;4191127;28;20264;-75
2022/10/10 08:07:52;;;;;;;8.68;3.05;;;18.60;99.90;;;;;;4197329;28;20242;-75
2022/10/10 08:09:54;;;;;;;8.55;3.40;;;18.60;99.90;;;;;;4198696;28;20203;-75
2022/10/10 08:11:56;;;;;;;10.75;2.85;;;18.60;99.90;;;;;;4196209;28;20272;-76
2022/10/10 08:13:58;;;;;;;11.43;3.10;;;18.60;99.90;;;;;;4193022;28;20223;-75
2022/10/10 08:16:03;;;;;;;5.63;2.60;;;18.60;99.90;;;;;;4198653;28;20222;-75
2022/10/10 08:18:06;;;;;;;11.18;3.03;;;18.70;99.90;;;;;;4196524;28;20207;-75
2022/10/10 08:20:09;;;;;;;11.38;3.05;;;18.70;99.90;;;;;;4193195;28;20234;-73
2022/10/10 08:22:11;;;;;;;8.90;3.30;;;18.70;99.90;;;;;;4193983;28;21070;-73
2022/10/10 08:24:14;;;;;;;7.95;3.17;;;18.70;99.90;;;;;;4197564;28;20266;-73
2022/10/10 08:26:18;;;;;;;5.97;3.08;;;18.70;99.90;;;;;;4199469;28;20211;-75
2022/10/10 08:28:20;;;;;;;6.07;2.67;;;18.70;99.90;;;;;;4195531;28;20314;-74
2022/10/10 08:30:23;;;;;;;6.03;2.92;;;18.70;99.90;;;;;;4195054;28;20211;-74
2022/10/10 08:32:26;;;;;;;9.60;3.00;;;18.70;99.90;;;;;;4190523;28;20280;-77
2022/10/10 08:34:29;;;;;;;8.82;3.40;;;18.70;99.90;;;;;;4191271;28;20210;-76
2022/10/10 08:36:31;;;;;;;7.30;3.03;;;18.80;99.90;;;;;;4191640;28;20220;-74
2022/10/10 08:38:34;;;;;;;7.00;2.95;;;18.80;99.90;;;;;;4181541;28;20223;-74
2022/10/10 08:40:53;;;;;;;9.98;3.10;;;18.80;99.90;;;;;;4191182;28;20285;-76
2022/10/10 08:43:12;;;;;;;8.85;3.10;;;18.80;99.90;;;;;;4195935;28;20342;-77
2022/10/10 08:45:17;;;;;;;9.00;2.67;;;18.80;99.90;;;;;;4187598;28;20288;-76
2022/10/10 08:47:24;;;;;;;8.68;3.00;;;18.80;99.90;;;;;;4189669;28;20260;-77
2022/10/10 08:50:10;;;;;;;7.78;3.03;;;18.80;99.90;;;;;;4186445;28;20215;-75
2022/10/10 08:52:48;;;;;;;9.13;3.30;;;18.80;99.90;;;;;;4187616;28;20215;-75
2022/10/10 08:54:54;;;;;;;13.70;2.90;;;18.90;99.90;;;;;;4184639;28;21237;-75
2022/10/10 08:56:59;;;;;;;8.88;3.08;;;18.90;99.90;;;;;;4184807;28;20256;-76
2022/10/10 08:59:09;;;;;;;9.50;3.17;;;18.90;99.90;;;;;;4195750;28;20264;-75
2022/10/10 09:01:17;;;;;;;8.43;2.65;;;18.90;99.90;;;;;;4192044;28;20253;-78
2022/10/10 09:03:27;;;;;;;7.65;3.33;;;18.90;99.90;;;;;;4191061;28;20219;-77
2022/10/10 09:05:46;;;;;;;8.98;3.05;;;18.80;99.90;;;;;;4195054;28;20263;-76
2022/10/10 09:08:12;;;;;;;6.38;2.97;;;18.90;99.90;;;;;;4196647;28;20222;-77
2022/10/10 09:10:23;;;;;;;6.97;2.80;;;18.90;99.90;;;;;;4191912;28;20235;-78
2022/10/10 09:12:33;;;;;;;8.98;3.17;;;18.90;99.90;;;;;;4188334;28;20280;-78
2022/10/10 09:14:43;;;;;;;6.55;2.90;;;18.90;99.90;;;;;;4200509;28;20218;-79
2022/10/10 09:16:53;;;;;;;6.60;2.45;;;18.90;99.90;;;;;;4180948;28;20252;-77
2022/10/10 09:19:10;;;;;;;7.93;2.90;;;18.80;99.90;;;;;;4185192;28;20211;-76
2022/10/10 09:21:16;;;;;;;8.50;3.08;;;18.90;99.90;;;;;;4190093;28;20337;-74
2022/10/10 09:23:25;;;;;;;5.32;2.53;;;18.80;99.90;;;;;;4192975;28;20272;-77
2022/10/10 09:25:33;;;;;;;6.90;3.05;;;18.80;99.90;;;;;;4195070;28;20696;-77
2022/10/10 09:27:40;;;;;;;6.68;3.22;;;18.80;99.90;;;;;;4200647;28;20234;-78
2022/10/10 09:29:50;;;;;;;7.22;2.90;;;18.80;99.90;;;;;;4193364;28;21063;-76
2022/10/10 09:31:57;;;;;;;7.63;2.90;;;18.80;99.90;;;;;;4195175;28;20215;-78
2022/10/10 09:34:03;;;;;;;6.00;2.88;;;18.80;99.90;;;;;;4189336;28;20250;-78
2022/10/10 09:36:10;;;;;;;9.75;3.03;;;18.70;99.90;;;;;;4191659;28;20215;-77
2022/10/10 09:38:25;;;;;;;6.68;2.67;;;18.70;99.90;;;;;;4196547;28;20215;-75
2022/10/10 09:40:34;;;;;;;8.70;2.90;;;18.80;99.90;;;;;;4194905;28;20301;-76
2022/10/10 09:42:39;;;;;;;6.25;2.97;;;18.80;99.90;;;;;;4193554;28;20214;-74
2022/10/10 09:44:43;;;;;;;5.63;2.88;;;18.80;99.90;;;;;;4196184;28;20275;-76
2022/10/10 09:46:45;;;;;;;5.25;2.72;;;18.90;99.90;;;;;;4191403;28;20743;-76
2022/10/10 09:48:50;;;;;;;6.18;2.58;;;18.90;99.90;;;;;;4196116;28;20222;-76
2022/10/10 09:50:52;;;;;;;4.93;2.50;;;18.90;99.90;;;;;;4187929;28;20283;-72
2022/10/10 09:52:57;;;;;;;6.60;2.90;;;18.80;99.90;;;;;;4192707;28;20269;-71
2022/10/10 09:55:02;;;;;;;8.00;2.75;;;18.80;99.90;;;;;;4195067;28;20219;-74
2022/10/10 09:57:06;;;;;;;4.97;2.22;;;18.80;99.90;;;;;;4191144;28;20219;-73
2022/10/10 09:59:38;;;;;;;6.75;2.80;;;18.90;99.90;;;;;;4191178;28;20264;-74
2022/10/10 10:01:40;;;;;;;6.13;2.83;;;18.90;99.90;;;;;;4188220;28;20264;-74
2022/10/10 10:03:44;;;;;;;5.82;2.83;;;18.90;99.90;;;;;;4189448;28;20267;-74
2022/10/10 10:05:54;;;;;;;6.78;3.03;;;18.90;99.90;;;;;;4196289;28;20275;-77
2022/10/10 10:07:57;;;;;;;8.90;3.10;;;18.90;99.90;;;;;;4193743;28;20213;-75
2022/10/10 10:10:01;;;;;;;5.82;2.35;;;19.00;99.90;;;;;;4193255;28;20277;-75
2022/10/10 10:12:06;;;;;;;5.30;2.47;;;19.00;99.90;;;;;;4188862;28;20947;-75
2022/10/10 10:14:24;;;;;;;5.10;2.88;;;19.00;99.90;;;;;;4189079;28;20219;-74
2022/10/10 10:16:32;;;;;;;8.18;2.63;;;19.10;99.90;;;;;;4191971;28;20273;-75
2022/10/10 10:18:45;;;;;;;9.15;2.97;;;19.10;99.90;;;;;;4194172;28;20740;-74
2022/10/10 10:20:49;;;;;;;4.95;2.65;;;19.10;99.90;;;;;;4191159;28;20238;-74
2022/10/10 10:22:51;;;;;;;7.85;2.90;;;19.00;99.90;;;;;;4195030;28;20215;-74
2022/10/10 10:24:54;;;;;;;5.55;2.67;;;19.00;99.90;;;;;;4199760;28;20739;-74
2022/10/10 10:26:57;;;;;;;6.10;2.58;;;19.00;99.90;;;;;;4194243;28;20211;-75
2022/10/10 10:29:00;;;;;;;5.57;2.30;;;19.10;99.90;;;;;;4191908;28;20219;-76
2022/10/10 10:31:15;;;;;;;3.53;2.25;;;19.10;99.90;;;;;;4195356;28;20218;-75
2022/10/10 10:33:34;;;;;;;3.50;2.38;;;19.10;99.90;;;;;;4197452;28;20212;-74
2022/10/10 10:35:42;;;;;;;4.97;2.10;;;19.10;99.90;;;;;;4197249;28;20227;-75
2022/10/10 10:37:58;;;;;;;5.00;2.55;;;19.20;99.90;;;;;;4194522;28;20723;-75
2022/10/10 10:40:18;;;;;;;4.53;2.20;;;19.20;99.90;;;;;;4200071;28;20207;-77
2022/10/10 10:42:42;;;;;;;5.38;2.40;;;19.10;99.90;;;;;;4193535;28;20218;-80
2022/10/10 10:45:09;;;;;;;5.80;2.45;;;19.10;99.90;;;;;;4201591;28;20257;-76
2022/10/10 10:47:26;;;;;;;5.00;2.35;;;19.10;99.90;;;;;;4194061;28;20214;-75
2022/10/10 10:49:35;;;;;;;5.95;2.10;;;19.10;99.90;;;;;;4193927;28;20226;-75
2022/10/10 10:51:52;;;;;;;3.97;2.10;;;19.10;99.90;;;;;;4195022;28;20218;-79